ADDS METAR Data INFO
IDs: Format: Raw Decoded Include TAF

Data at: 1958 UTC 15 Dec 2017

KLAF 151954Z 27014G19KT 10SM SCT046 01/M09 A2997 RMK AO2 SLP155 T00111089
KLAF 151854Z 27015G20KT 10SM OVC040 M01/M09 A2997 RMK AO2 PK WND 26027/1807 SLP156 T10061089
KLAF 151801Z 27019G26KT 10SM OVC035 M01/M08 A2998 RMK AO2 PK WND 27026/1800 T10111083
KLAF 151754Z 27019G25KT 10SM BKN025 OVC033 M01/M08 A2998 RMK AO2 PK WND 28027/1721 SLP160 T10111083 11011 21050 58004
KLAF 151654Z 27012G21KT 10SM BKN027 OVC033 M02/M07 A2999 RMK AO2 SLP160 T10171067
KLAF 151554Z 26012G19KT 10SM BKN021 OVC026 M02/M06 A3000 RMK AO2 SLP165 T10221061
KLAF 151454Z 25009KT 10SM OVC025 M03/M07 A2999 RMK AO2 SLP164 T10331067 55002
KLAF 151354Z 24006KT 10SM BKN028 OVC048 M04/M07 A2999 RMK AO2 SLP162 T10441072
KLAF 151254Z 25008KT 10SM OVC049 M05/M08 A3000 RMK AO2 SLP165 T10501078
KLAF 151154Z 25004KT 10SM BKN033 OVC042 M05/M08 A3000 RMK AO2 SLP167 T10501078 11050 21072 56008
KLAF 151054Z AUTO 26003KT 10SM BKN033 OVC080 M06/M08 A3001 RMK AO2 SLP169 T10611083
KLAF 150954Z AUTO 21003KT 10SM BKN032 OVC085 M06/M08 A3001 RMK AO2 SLP169 T10611083
KLAF 150854Z 26003KT 10SM CLR M07/M09 A3003 RMK AO2 SLP175 T10721089 56009
KLAF 150754Z 00000KT 10SM CLR M07/M08 A3003 RMK AO2 SLP176 T10671083
KLAF 150654Z 28004KT 10SM CLR M07/M09 A3003 RMK AO2 SLP177 T10671089
KLAF 150554Z 28003KT 10SM SCT039 M06/M09 A3005 RMK AO2 SLP184 T10611094 11028 21061 58011
KLAF 150454Z 26003KT 10SM CLR M06/M09 A3007 RMK AO2 SLP188 T10561094 410061056
KLAF 150354Z 00000KT 10SM BKN043 M04/M09 A3008 RMK AO2 SLP191 T10391089
KLAF 150254Z 00000KT 10SM OVC044 M03/M09 A3009 RMK AO2 SLP195 T10331089 52002
KLAF 150154Z 00000KT 10SM OVC043 M04/M09 A3009 RMK AO2 SLP197 T10391089
KLAF 150054Z 09005KT 10SM OVC044 M04/M09 A3008 RMK AO2 SLP192 T10391089
KLAF 142354Z 04003KT 10SM BKN045 M03/M09 A3008 RMK AO2 SLP192 T10281094 11006 21028 51010
KLAF 142254Z 00000KT 10SM BKN043 M02/M10 A3007 RMK AO2 SLP191 T10221100
KLAF 142154Z 00000KT 10SM FEW044 M02/M10 A3006 RMK AO2 SLP187 T10171100
KLAF 142054Z 00000KT 10SM SCT043 M01/M10 A3005 RMK AO2 SLP180 T10111100 55006
KLAF 141954Z 00000KT 10SM CLR M01/M11 A3004 RMK AO2 SLP178 T10111106
KLAF 141854Z VRB04KT 10SM CLR M02/M11 A3004 RMK AO2 SLP180 T10171106
KLAF 141754Z 08004KT 10SM CLR M02/M11 A3007 RMK AO2 SLP187 T10221106 11017 21050 50003
KLAF 141654Z VRB04KT 10SM CLR M02/M11 A3007 RMK AO2 SLP189 T10221111
KLAF 141554Z 03008KT 10SM CLR M02/M11 A3007 RMK AO2 SLP189 T10221111
KLAF 141454Z 06006KT 10SM FEW042 M04/M11 A3006 RMK AO2 SLP184 T10391111 53030
KLAF 141354Z 03006KT 10SM BKN036 BKN043 M05/M11 A3001 RMK AO2 SLP169 T10501106
KLAF 141254Z 07007KT 10SM OVC042 M04/M08 A2998 RMK AO2 SLP157 T10391078
KLAF 141154Z 06006KT 10SM OVC037 M03/M07 A2996 RMK AO2 SLP152 T10331067 11011 21033 53033
KLAF 141054Z AUTO 35009KT 10SM OVC034 M02/M08 A2992 RMK AO2 SLP138 T10221078
KLAF 141038Z AUTO 01009KT 10SM OVC032 M02/M07 A2991 RMK AO2 T10221072
KLAF 140954Z AUTO 02010KT 10SM OVC028 M02/M07 A2988 RMK AO2 SLP122 T10171067
KLAF 140928Z AUTO 36014G18KT 10SM OVC029 M02/M07 A2988 RMK AO2 T10171072
KLAF 140854Z AUTO 36012G18KT 10SM OVC031 M02/M07 A2987 RMK AO2 SLP117 T10171072 53026